Time;durP1;ratioP1;P1;durP2;ratioP2;P2;SDS_P1;SDS_P2;PMS_P1;PMS_P2;Temp;Humidity;BMP_temperature;BMP_pressure;BME280_temperature;BME280_humidity;BME280_pressure;Samples;Min_cycle;Max_cycle;Signal;HPM_P1;HPM_P2
2021/09/15 00:03:42;;;;;;;8.40;7.53;;;;;;;;;;10380751;28;20280;-69
2021/09/15 00:08:39;;;;;;;9.97;7.13;;;;;;;;;;10378453;28;20036;-68
2021/09/15 00:13:37;;;;;;;6.57;3.23;;;;;;;;;;10373704;28;20031;-67
2021/09/15 00:18:34;;;;;;;13.17;7.53;;;;;;;;;;10398482;28;20044;-67
2021/09/15 00:23:31;;;;;;;7.43;5.77;;;;;;;;;;10399653;28;20085;-67
2021/09/15 00:28:29;;;;;;;12.50;6.77;;;;;;;;;;10414722;28;20028;-69
2021/09/15 00:33:26;;;;;;;8.77;4.27;;;;;;;;;;10405515;28;20036;-66
2021/09/15 00:38:23;;;;;;;10.50;6.53;;;;;;;;;;10409006;28;20086;-67
2021/09/15 00:43:21;;;;;;;7.97;5.10;;;;;;;;;;10344676;28;20134;-65
2021/09/15 00:48:20;;;;;;;9.38;5.85;;;;;;;;;;10411951;28;20059;-66
2021/09/15 00:53:20;;;;;;;10.48;6.70;;;;;;;;;;10414395;28;20166;-64
2021/09/15 00:58:18;;;;;;;13.95;8.50;;;;;;;;;;10366151;28;20036;-68
2021/09/15 01:03:19;;;;;;;9.68;7.07;;;;;;;;;;10411349;28;20035;-66
2021/09/15 01:08:17;;;;;;;8.80;6.00;;;;;;;;;;10414383;28;20040;-65
2021/09/15 01:13:15;;;;;;;11.73;6.60;;;;;;;;;;10396288;28;21006;-67
2021/09/15 01:18:16;;;;;;;6.88;5.07;;;;;;;;;;10343305;28;20498;-68
2021/09/15 01:23:33;;;;;;;4.07;3.63;;;;;;;;;;10410905;28;20074;-66
2021/09/15 01:28:47;;;;;;;9.88;6.57;;;;;;;;;;10380629;28;20548;-66
2021/09/15 01:33:50;;;;;;;10.50;7.43;;;;;;;;;;10388326;28;20079;-68
2021/09/15 01:38:47;;;;;;;16.23;5.25;;;;;;;;;;10404083;28;20077;-68
2021/09/15 01:43:49;;;;;;;9.43;6.67;;;;;;;;;;10391685;28;20243;-66
2021/09/15 01:48:46;;;;;;;11.18;6.75;;;;;;;;;;10377733;28;20098;-65
2021/09/15 01:53:44;;;;;;;9.50;6.70;;;;;;;;;;10392289;28;20066;-67
2021/09/15 01:58:43;;;;;;;10.45;7.78;;;;;;;;;;10377859;28;20036;-67
2021/09/15 02:03:59;;;;;;;5.53;4.05;;;;;;;;;;10410009;28;20036;-65
2021/09/15 02:09:19;;;;;;;6.30;4.50;;;;;;;;;;10403640;28;20040;-65
2021/09/15 02:14:29;;;;;;;7.03;3.63;;;;;;;;;;10364753;28;20028;-65
2021/09/15 02:19:26;;;;;;;6.33;4.33;;;;;;;;;;10345459;28;20039;-67
2021/09/15 02:24:46;;;;;;;3.55;2.60;;;;;;;;;;10398223;28;20036;-66
2021/09/15 02:30:00;;;;;;;8.00;6.40;;;;;;;;;;10407211;28;20032;-66
2021/09/15 02:35:05;;;;;;;8.20;5.28;;;;;;;;;;10403193;28;20036;-66
2021/09/15 02:40:35;;;;;;;4.30;3.08;;;;;;;;;;10389026;28;20493;-66
2021/09/15 02:45:54;;;;;;;11.27;6.27;;;;;;;;;;10413048;28;20138;-65
2021/09/15 02:50:58;;;;;;;8.43;5.45;;;;;;;;;;10403593;28;20275;-65
2021/09/15 02:56:12;;;;;;;7.75;5.45;;;;;;;;;;10349163;28;20158;-65
2021/09/15 03:01:20;;;;;;;;;;;;;;;;;;10407000;28;20036;-65
2021/09/15 03:06:23;;;;;;;10.00;6.72;;;;;;;;;;10377529;28;19919;-67
2021/09/15 03:11:37;;;;;;;7.38;5.65;;;;;;;;;;10425942;28;20028;-66
2021/09/15 03:16:34;;;;;;;7.50;4.63;;;;;;;;;;10426792;28;20028;-65
2021/09/15 03:21:39;;;;;;;9.98;5.47;;;;;;;;;;10410036;28;20032;-64
2021/09/15 03:26:38;;;;;;;11.48;6.03;;;;;;;;;;10405330;28;20024;-65
2021/09/15 03:31:35;;;;;;;5.95;3.75;;;;;;;;;;10302860;28;20494;-65
2021/09/15 03:36:34;;;;;;;11.75;5.72;;;;;;;;;;10404467;28;20033;-66
2021/09/15 03:41:32;;;;;;;7.93;5.97;;;;;;;;;;10291284;28;20258;-68
2021/09/15 03:46:30;;;;;;;2.97;2.42;;;;;;;;;;10268697;28;20068;-68
2021/09/15 03:51:27;;;;;;;10.03;7.87;;;;;;;;;;10283963;28;20034;-66
2021/09/15 03:56:25;;;;;;;4.50;2.83;;;;;;;;;;10243616;28;20046;-65
2021/09/15 04:01:25;;;;;;;8.30;3.78;;;;;;;;;;10252831;28;20403;-65
2021/09/15 04:06:23;;;;;;;6.23;3.23;;;;;;;;;;10262199;28;20046;-65
2021/09/15 04:11:20;;;;;;;6.70;3.33;;;;;;;;;;10261273;28;20282;-67
2021/09/15 04:16:20;;;;;;;6.30;3.22;;;;;;;;;;10260385;28;20039;-66
2021/09/15 04:21:17;;;;;;;6.87;3.47;;;;;;;;;;10253830;28;20620;-66
2021/09/15 04:31:34;;;;;;;5.22;3.65;;;;;;;;;;10269908;28;19956;-66
2021/09/15 04:36:32;;;;;;;4.82;3.22;;;;;;;;;;10193792;28;20034;-65
2021/09/15 04:41:33;;;;;;;5.50;3.80;;;;;;;;;;10249581;28;20039;-65
2021/09/15 04:46:30;;;;;;;5.93;4.00;;;;;;;;;;10260761;28;20035;-65
2021/09/15 04:51:29;;;;;;;;;;;;;;;;;;10281399;28;20946;-65
2021/09/15 04:56:27;;;;;;;5.95;3.78;;;;;;;;;;10267770;28;19997;-64
2021/09/15 05:01:25;;;;;;;5.97;4.70;;;;;;;;;;10269101;28;20052;-66
2021/09/15 05:06:22;;;;;;;6.60;4.38;;;;;;;;;;10220692;28;20495;-65
2021/09/15 05:11:21;;;;;;;;;;;;;;;;;;10308961;28;20038;-66
2021/09/15 05:16:18;;;;;;;6.00;3.77;;;;;;;;;;10213973;28;19917;-65
2021/09/15 05:21:18;;;;;;;7.05;4.15;;;;;;;;;;10273505;28;20079;-68
2021/09/15 05:26:15;;;;;;;3.45;2.45;;;;;;;;;;10226421;28;20651;-67
2021/09/15 05:31:13;;;;;;;4.53;3.07;;;;;;;;;;10200007;28;20415;-65
2021/09/15 05:36:14;;;;;;;8.93;3.92;;;;;;;;;;10243163;28;20035;-66
2021/09/15 05:41:11;;;;;;;4.87;3.40;;;;;;;;;;10269427;28;20030;-65
2021/09/15 05:46:09;;;;;;;9.27;6.65;;;;;;;;;;10304332;28;20038;-65
2021/09/15 05:51:07;;;;;;;14.60;8.90;;;;;;;;;;10260687;28;20038;-65
2021/09/15 05:56:05;;;;;;;12.65;10.38;;;;;;;;;;10291452;28;20043;-66
2021/09/15 06:01:03;;;;;;;6.53;2.67;;;;;;;;;;10242341;28;20036;-64
2021/09/15 06:06:01;;;;;;;5.60;3.80;;;;;;;;;;10288667;28;20038;-64
2021/09/15 06:10:59;;;;;;;15.65;9.68;;;;;;;;;;10254629;28;20036;-62
2021/09/15 06:15:56;;;;;;;10.17;8.40;;;;;;;;;;10266055;28;20064;-63
2021/09/15 06:20:54;;;;;;;1.63;1.50;;;;;;;;;;10282021;28;20713;-64
2021/09/15 06:26:26;;;;;;;4.78;3.22;;;;;;;;;;10187449;28;20592;-66
2021/09/15 06:31:24;;;;;;;3.38;2.58;;;;;;;;;;10239725;28;20511;-64
2021/09/15 06:36:23;;;;;;;5.35;2.58;;;;;;;;;;10303080;28;20032;-62
2021/09/15 06:41:20;;;;;;;8.73;4.80;;;;;;;;;;10258682;28;20397;-63
2021/09/15 06:46:18;;;;;;;3.07;2.57;;;;;;;;;;10273240;28;20125;-65
2021/09/15 06:51:16;;;;;;;3.03;2.27;;;;;;;;;;10327408;28;20075;-68
2021/09/15 06:56:13;;;;;;;;;;;;;;;;;;10331590;28;20038;-64
2021/09/15 07:01:11;;;;;;;6.45;4.88;;;;;;;;;;10310378;28;19912;-66
2021/09/15 07:06:09;;;;;;;6.17;3.33;;;;;;;;;;10286317;28;20034;-66
2021/09/15 07:11:06;;;;;;;4.03;2.87;;;;;;;;;;10216984;28;20035;-64
2021/09/15 07:16:04;;;;;;;14.37;9.40;;;;;;;;;;10291993;28;20039;-64
2021/09/15 07:21:01;;;;;;;14.23;11.37;;;;;;;;;;10221686;28;20087;-65
2021/09/15 07:25:59;;;;;;;6.63;4.90;;;;;;;;;;10272600;28;20040;-65
2021/09/15 07:30:56;;;;;;;3.67;3.10;;;;;;;;;;10277851;28;20091;-65
2021/09/15 07:35:53;;;;;;;4.30;3.90;;;;;;;;;;10263643;28;20087;-65
2021/09/15 07:40:51;;;;;;;6.40;4.20;;;;;;;;;;10215840;28;20039;-66
2021/09/15 07:45:48;;;;;;;7.20;4.03;;;;;;;;;;10225641;28;20071;-65
2021/09/15 07:50:48;;;;;;;4.67;3.93;;;;;;;;;;10240109;28;20047;-67
2021/09/15 07:55:45;;;;;;;2.40;1.90;;;;;;;;;;10214238;28;20054;-65
2021/09/15 08:00:43;;;;;;;6.43;4.23;;;;;;;;;;10292414;28;20045;-64
2021/09/15 08:05:40;;;;;;;7.30;3.47;;;;;;;;;;10219036;28;20059;-67
2021/09/15 08:10:39;;;;;;;6.23;3.90;;;;;;;;;;10218073;28;20037;-63
2021/09/15 08:15:36;;;;;;;;;;;;;;;;;;10213639;28;20468;-67
2021/09/15 08:20:34;;;;;;;10.45;4.63;;;;;;;;;;10257154;28;19918;-67
2021/09/15 08:25:31;;;;;;;9.03;5.03;;;;;;;;;;10293450;28;20104;-65
2021/09/15 08:30:28;;;;;;;8.17;4.40;;;;;;;;;;10255077;28;20496;-63
2021/09/15 08:35:26;;;;;;;6.40;4.13;;;;;;;;;;10297384;28;20042;-64
2021/09/15 08:40:23;;;;;;;7.67;5.20;;;;;;;;;;10228839;28;20046;-64
2021/09/15 08:45:23;;;;;;;4.80;3.60;;;;;;;;;;10244405;28;20391;-64
2021/09/15 08:50:20;;;;;;;13.30;7.32;;;;;;;;;;10253418;28;20043;-64
2021/09/15 08:55:18;;;;;;;7.73;3.30;;;;;;;;;;10216868;28;20422;-64
2021/09/15 09:00:15;;;;;;;12.23;6.47;;;;;;;;;;10205390;28;21263;-66
2021/09/15 09:05:13;;;;;;;8.30;6.27;;;;;;;;;;10226612;28;20508;-64
2021/09/15 09:10:12;;;;;;;8.17;4.43;;;;;;;;;;10261665;28;20031;-63
2021/09/15 09:15:30;;;;;;;10.60;7.50;;;;;;;;;;10292605;28;20508;-64
2021/09/15 09:20:44;;;;;;;7.13;4.43;;;;;;;;;;10264670;28;20038;-64
2021/09/15 09:25:56;;;;;;;10.02;5.20;;;;;;;;;;10233387;28;20495;-63
2021/09/15 09:30:55;;;;;;;4.97;3.67;;;;;;;;;;10273431;28;20062;-64
2021/09/15 09:35:58;;;;;;;8.77;4.90;;;;;;;;;;10264494;28;20035;-64
2021/09/15 09:40:56;;;;;;;7.82;4.10;;;;;;;;;;10264725;28;20457;-66
2021/09/15 09:45:53;;;;;;;5.50;3.80;;;;;;;;;;10232412;28;20042;-63
2021/09/15 09:50:50;;;;;;;8.67;5.07;;;;;;;;;;10297700;28;20038;-63
2021/09/15 09:55:51;;;;;;;5.50;4.40;;;;;;;;;;10207877;28;20038;-64
2021/09/15 10:00:50;;;;;;;9.70;5.65;;;;;;;;;;10270212;28;20036;-64
2021/09/15 10:05:47;;;;;;;;;;;;;;;;;;10201097;28;20122;-63
2021/09/15 10:10:46;;;;;;;8.20;2.80;;;;;;;;;;10217696;28;19977;-63
2021/09/15 10:15:46;;;;;;;4.90;3.85;;;;;;;;;;10202889;28;20062;-64
2021/09/15 10:20:45;;;;;;;2.85;2.60;;;;;;;;;;10274404;28;20089;-64
2021/09/15 10:25:43;;;;;;;5.07;3.72;;;;;;;;;;10230952;28;20100;-64
2021/09/15 10:30:53;;;;;;;10.05;4.93;;;;;;;;;;10407209;28;20294;-64
2021/09/15 10:35:50;;;;;;;11.07;6.88;;;;;;;;;;10391512;28;20085;-61
2021/09/15 10:40:48;;;;;;;6.60;3.80;;;;;;;;;;10387322;28;20231;-64
2021/09/15 10:45:45;;;;;;;5.47;3.83;;;;;;;;;;10398684;28;20139;-64
2021/09/15 10:50:46;;;;;;;5.70;3.73;;;;;;;;;;10354613;28;20570;-65
2021/09/15 10:55:45;;;;;;;7.43;5.20;;;;;;;;;;10400596;28;20040;-62
2021/09/15 11:00:50;;;;;;;5.40;4.03;;;;;;;;;;10383302;28;20035;-61
2021/09/15 11:05:48;;;;;;;7.70;4.75;;;;;;;;;;10398926;28;20040;-63
2021/09/15 11:10:45;;;;;;;6.60;3.80;;;;;;;;;;10344061;28;20235;-61
2021/09/15 11:15:49;;;;;;;7.07;3.90;;;;;;;;;;10407161;28;20092;-62
2021/09/15 11:20:50;;;;;;;5.32;2.83;;;;;;;;;;10362198;28;20043;-63
2021/09/15 11:25:49;;;;;;;14.82;8.77;;;;;;;;;;10275228;28;20466;-61
2021/09/15 11:30:49;;;;;;;7.78;6.07;;;;;;;;;;10185652;28;20412;-61
2021/09/15 11:35:46;;;;;;;5.65;3.10;;;;;;;;;;10276007;28;20595;-61
2021/09/15 11:40:44;;;;;;;13.07;7.63;;;;;;;;;;10188171;28;20141;-61
2021/09/15 11:45:42;;;;;;;13.68;7.28;;;;;;;;;;10197154;28;20150;-63
2021/09/15 11:50:39;;;;;;;12.90;7.47;;;;;;;;;;10192576;28;20454;-61
2021/09/15 11:55:46;;;;;;;5.73;3.30;;;;;;;;;;10192580;28;20030;-61
2021/09/15 12:00:44;;;;;;;4.63;3.30;;;;;;;;;;10262324;28;20035;-61
2021/09/15 12:05:43;;;;;;;13.53;7.90;;;;;;;;;;10206249;28;20038;-61
2021/09/15 12:10:40;;;;;;;8.13;5.63;;;;;;;;;;10194574;28;20464;-64
2021/09/15 12:15:48;;;;;;;11.82;5.28;;;;;;;;;;10278100;28;20040;-63
2021/09/15 12:20:47;;;;;;;9.80;5.35;;;;;;;;;;10218825;28;20032;-64
2021/09/15 12:25:52;;;;;;;6.68;4.13;;;;;;;;;;10398089;28;20143;-62
2021/09/15 12:30:49;;;;;;;6.20;3.55;;;;;;;;;;10396972;28;20060;-64
2021/09/15 12:35:46;;;;;;;8.23;3.37;;;;;;;;;;10393513;28;20492;-63
2021/09/15 12:40:44;;;;;;;10.80;4.37;;;;;;;;;;10397916;28;20090;-63
2021/09/15 12:45:45;;;;;;;15.03;8.87;;;;;;;;;;10406787;28;20070;-63
2021/09/15 12:50:44;;;;;;;14.20;8.48;;;;;;;;;;10397656;28;20040;-64
2021/09/15 12:55:46;;;;;;;11.52;6.00;;;;;;;;;;10389073;28;20394;-62
2021/09/15 13:00:45;;;;;;;7.03;4.97;;;;;;;;;;10387617;28;20382;-65
2021/09/15 13:05:46;;;;;;;6.45;3.65;;;;;;;;;;10397397;28;20075;-64
2021/09/15 13:10:43;;;;;;;12.88;3.83;;;;;;;;;;10400377;28;20294;-64
2021/09/15 13:15:41;;;;;;;10.23;4.20;;;;;;;;;;10373428;28;20044;-64
2021/09/15 13:20:38;;;;;;;6.00;4.07;;;;;;;;;;10396388;28;20051;-64
2021/09/15 13:25:36;;;;;;;4.90;3.40;;;;;;;;;;10398943;28;20031;-64
2021/09/15 13:30:34;;;;;;;4.97;3.53;;;;;;;;;;10399360;28;20505;-65
2021/09/15 13:35:31;;;;;;;5.43;3.37;;;;;;;;;;10391953;28;20071;-65
2021/09/15 13:40:29;;;;;;;5.50;3.67;;;;;;;;;;10396321;28;20354;-65
2021/09/15 13:45:26;;;;;;;6.70;3.95;;;;;;;;;;10392511;28;20046;-64
2021/09/15 13:50:24;;;;;;;3.60;2.87;;;;;;;;;;10383036;28;20115;-64
2021/09/15 13:55:22;;;;;;;6.15;3.55;;;;;;;;;;10395739;28;20039;-68
2021/09/15 14:00:20;;;;;;;;;;;;;;;;;;10376979;28;20032;-65
2021/09/15 14:05:17;;;;;;;6.60;2.93;;;;;;;;;;10393065;28;19916;-65
2021/09/15 14:10:15;;;;;;;3.03;2.73;;;;;;;;;;10405405;28;20897;-66
2021/09/15 14:15:12;;;;;;;2.43;2.17;;;;;;;;;;10408098;28;20032;-65
2021/09/15 14:20:10;;;;;;;7.23;4.07;;;;;;;;;;10399459;28;20036;-65
2021/09/15 14:25:07;;;;;;;13.40;8.20;;;;;;;;;;10373589;28;20097;-65
2021/09/15 14:30:05;;;;;;;18.38;9.13;;;;;;;;;;10377766;28;20047;-65
2021/09/15 14:35:03;;;;;;;19.13;9.18;;;;;;;;;;10384312;28;20036;-65
2021/09/15 14:40:00;;;;;;;16.13;9.93;;;;;;;;;;10392400;28;20081;-66
2021/09/15 14:44:58;;;;;;;13.77;7.90;;;;;;;;;;10391428;28;20331;-64
2021/09/15 14:49:55;;;;;;;15.10;9.20;;;;;;;;;;10392700;28;21171;-65
2021/09/15 14:54:53;;;;;;;14.37;7.97;;;;;;;;;;10397587;28;20032;-66
2021/09/15 14:59:50;;;;;;;5.13;3.27;;;;;;;;;;10394755;28;20047;-64
2021/09/15 15:04:49;;;;;;;6.30;3.38;;;;;;;;;;10413232;28;20385;-64
2021/09/15 15:09:51;;;;;;;2.67;2.30;;;;;;;;;;10410668;28;20032;-64
2021/09/15 15:14:48;;;;;;;4.30;1.95;;;;;;;;;;10416368;28;20108;-65
2021/09/15 15:19:46;;;;;;;2.13;1.67;;;;;;;;;;10392002;28;20109;-63
2021/09/15 15:24:43;;;;;;;6.20;2.83;;;;;;;;;;10405316;28;20028;-64
2021/09/15 15:29:41;;;;;;;4.65;2.85;;;;;;;;;;10397021;28;20110;-64
2021/09/15 15:34:38;;;;;;;18.20;8.77;;;;;;;;;;10384885;28;20038;-64
2021/09/15 15:39:35;;;;;;;11.10;6.73;;;;;;;;;;10414219;28;20609;-62
2021/09/15 15:44:33;;;;;;;12.93;8.53;;;;;;;;;;10402647;28;20031;-64
2021/09/15 15:49:30;;;;;;;15.50;8.90;;;;;;;;;;10402007;28;20032;-64
2021/09/15 15:54:28;;;;;;;14.77;9.07;;;;;;;;;;10413844;28;20040;-65
2021/09/15 15:59:25;;;;;;;11.80;7.50;;;;;;;;;;10402168;28;20299;-64
2021/09/15 16:04:23;;;;;;;14.03;8.27;;;;;;;;;;10388055;28;20065;-66
2021/09/15 16:09:20;;;;;;;12.45;7.78;;;;;;;;;;10401792;28;20501;-65
2021/09/15 16:14:18;;;;;;;12.97;6.57;;;;;;;;;;10405266;28;20248;-66
2021/09/15 16:19:15;;;;;;;13.20;8.17;;;;;;;;;;10406639;28;20036;-65
2021/09/15 16:24:12;;;;;;;11.70;7.63;;;;;;;;;;10392430;28;20067;-64
2021/09/15 16:29:10;;;;;;;15.27;8.73;;;;;;;;;;10390397;28;20629;-65
2021/09/15 16:34:07;;;;;;;13.00;7.33;;;;;;;;;;10393629;28;20032;-64
2021/09/15 16:39:05;;;;;;;2.63;1.98;;;;;;;;;;10394347;28;20020;-65
2021/09/15 16:44:03;;;;;;;2.83;1.80;;;;;;;;;;10395649;28;20034;-63
2021/09/15 16:49:00;;;;;;;6.57;2.53;;;;;;;;;;10399148;28;20227;-64
2021/09/15 16:53:58;;;;;;;4.63;2.42;;;;;;;;;;10382447;28;20016;-63
2021/09/15 16:58:56;;;;;;;;;;;;;;;;;;10409691;28;20497;-65
2021/09/15 17:03:53;;;;;;;12.23;6.80;;;;;;;;;;10410015;28;19998;-64
2021/09/15 17:08:50;;;;;;;13.50;8.73;;;;;;;;;;10414348;28;20058;-64
2021/09/15 17:13:48;;;;;;;12.67;7.63;;;;;;;;;;10407700;28;20497;-65
2021/09/15 17:18:45;;;;;;;7.90;4.97;;;;;;;;;;10378483;28;20640;-65
2021/09/15 17:23:43;;;;;;;8.98;3.88;;;;;;;;;;10402914;28;20368;-66
2021/09/15 17:28:40;;;;;;;9.45;4.32;;;;;;;;;;10396209;28;20033;-63
2021/09/15 17:33:38;;;;;;;11.80;5.83;;;;;;;;;;10372808;28;20029;-64
2021/09/15 17:38:35;;;;;;;10.03;5.20;;;;;;;;;;10392921;28;20579;-63
2021/09/15 17:43:33;;;;;;;14.43;6.23;;;;;;;;;;10398691;28;20028;-64
2021/09/15 17:48:30;;;;;;;11.38;6.05;;;;;;;;;;10392137;28;20028;-67
2021/09/15 17:53:28;;;;;;;10.47;5.30;;;;;;;;;;10362393;28;20040;-63
2021/09/15 17:58:25;;;;;;;9.37;4.77;;;;;;;;;;10397835;28;20028;-64
2021/09/15 18:03:23;;;;;;;9.20;4.70;;;;;;;;;;10381423;28;20114;-68
2021/09/15 18:08:20;;;;;;;6.40;3.67;;;;;;;;;;10374770;28;20432;-64
2021/09/15 18:13:18;;;;;;;5.07;3.87;;;;;;;;;;10386029;28;20047;-63
2021/09/15 18:18:15;;;;;;;6.20;3.27;;;;;;;;;;10389891;28;20047;-63
2021/09/15 18:23:13;;;;;;;5.80;2.88;;;;;;;;;;10399897;28;20123;-64
2021/09/15 18:28:10;;;;;;;4.87;3.00;;;;;;;;;;10396153;28;20528;-65
2021/09/15 18:33:08;;;;;;;6.47;2.93;;;;;;;;;;10405253;28;20032;-62
2021/09/15 18:38:05;;;;;;;3.37;3.07;;;;;;;;;;10383166;28;20063;-66
2021/09/15 18:43:03;;;;;;;7.10;4.05;;;;;;;;;;10264251;28;20036;-66
2021/09/15 18:48:00;;;;;;;5.27;3.77;;;;;;;;;;10272830;28;21044;-67
2021/09/15 18:52:58;;;;;;;5.80;3.28;;;;;;;;;;10286006;28;20063;-66
2021/09/15 18:57:56;;;;;;;6.10;3.08;;;;;;;;;;10228227;28;20705;-66
2021/09/15 19:02:53;;;;;;;5.10;2.60;;;;;;;;;;10275306;28;20463;-66
2021/09/15 19:07:51;;;;;;;6.82;2.70;;;;;;;;;;10288216;28;20047;-67
2021/09/15 19:12:48;;;;;;;6.55;3.28;;;;;;;;;;10293351;28;20032;-68
2021/09/15 19:17:47;;;;;;;3.10;2.65;;;;;;;;;;10285591;28;21239;-65
2021/09/15 19:22:47;;;;;;;6.20;3.13;;;;;;;;;;10288722;28;21643;-66
2021/09/15 19:27:45;;;;;;;4.85;2.78;;;;;;;;;;10262567;28;20047;-66
2021/09/15 19:32:44;;;;;;;2.55;2.00;;;;;;;;;;10269052;28;20043;-67
2021/09/15 19:37:42;;;;;;;4.90;2.17;;;;;;;;;;10292859;28;20040;-65
2021/09/15 19:42:39;;;;;;;;;;;;;;;;;;10281324;28;20105;-65
2021/09/15 19:47:37;;;;;;;2.10;1.33;;;;;;;;;;10280992;28;20396;-67
2021/09/15 19:52:34;;;;;;;7.07;2.93;;;;;;;;;;10291209;28;20037;-66
2021/09/15 19:57:31;;;;;;;8.87;3.30;;;;;;;;;;10282449;28;20610;-64
2021/09/15 20:02:29;;;;;;;3.63;2.47;;;;;;;;;;10295890;28;20097;-66
2021/09/15 20:07:26;;;;;;;5.77;3.43;;;;;;;;;;10268152;28;20043;-65
2021/09/15 20:12:24;;;;;;;5.03;2.77;;;;;;;;;;10302371;28;20516;-66
2021/09/15 20:17:21;;;;;;;4.10;1.77;;;;;;;;;;10276070;28;20513;-66
2021/09/15 20:22:19;;;;;;;7.28;1.83;;;;;;;;;;10267446;28;20051;-65
2021/09/15 20:27:16;;;;;;;5.50;1.97;;;;;;;;;;10253815;28;20052;-66
2021/09/15 20:32:14;;;;;;;9.67;2.57;;;;;;;;;;10257995;28;20534;-66
2021/09/15 20:37:12;;;;;;;5.10;2.33;;;;;;;;;;10261334;28;20613;-66
2021/09/15 20:42:09;;;;;;;11.23;1.97;;;;;;;;;;10272155;28;20607;-64
2021/09/15 20:47:07;;;;;;;7.17;1.80;;;;;;;;;;10257710;28;20045;-63
2021/09/15 20:52:04;;;;;;;1.57;1.27;;;;;;;;;;10265131;28;20051;-64
2021/09/15 20:57:04;;;;;;;6.50;1.20;;;;;;;;;;10288834;28;20043;-65
2021/09/15 21:02:01;;;;;;;7.22;1.55;;;;;;;;;;10268385;28;20048;-65
2021/09/15 21:06:59;;;;;;;8.97;1.83;;;;;;;;;;10268889;28;20085;-67
2021/09/15 21:11:56;;;;;;;1.37;0.77;;;;;;;;;;10283927;28;20085;-66
2021/09/15 21:16:54;;;;;;;6.20;1.30;;;;;;;;;;10269189;28;21076;-66
2021/09/15 21:21:51;;;;;;;2.30;1.23;;;;;;;;;;10221212;28;20169;-66
2021/09/15 21:26:49;;;;;;;2.47;1.03;;;;;;;;;;10101219;28;20137;-64
2021/09/15 21:31:46;;;;;;;3.87;1.30;;;;;;;;;;10270276;28;20043;-64
2021/09/15 21:36:43;;;;;;;7.57;2.00;;;;;;;;;;10249855;28;21021;-64
2021/09/15 21:41:41;;;;;;;2.27;1.07;;;;;;;;;;10278481;28;20039;-63
2021/09/15 21:46:38;;;;;;;7.13;1.13;;;;;;;;;;10190489;28;20038;-63
2021/09/15 21:51:36;;;;;;;9.00;0.97;;;;;;;;;;10264671;28;20498;-64
2021/09/15 21:56:37;;;;;;;5.03;1.43;;;;;;;;;;10265903;28;20043;-66
2021/09/15 22:01:34;;;;;;;6.43;2.03;;;;;;;;;;10202424;28;20056;-67
2021/09/15 22:06:32;;;;;;;1.03;0.67;;;;;;;;;;10244073;28;20034;-66
2021/09/15 22:11:29;;;;;;;2.40;0.90;;;;;;;;;;10266500;28;20042;-63
2021/09/15 22:16:27;;;;;;;4.63;1.80;;;;;;;;;;10199000;28;20030;-66
2021/09/15 22:21:24;;;;;;;3.00;1.57;;;;;;;;;;10296043;28;20409;-64
2021/09/15 22:26:22;;;;;;;4.87;1.60;;;;;;;;;;10397652;28;20043;-63
2021/09/15 22:31:19;;;;;;;1.20;0.60;;;;;;;;;;10394830;28;20032;-62
2021/09/15 22:36:17;;;;;;;4.33;1.23;;;;;;;;;;10403431;28;20113;-62
2021/09/15 22:41:14;;;;;;;4.00;1.60;;;;;;;;;;10410888;28;20040;-63
2021/09/15 22:46:12;;;;;;;2.73;1.03;;;;;;;;;;10410085;28;20039;-64
2021/09/15 22:51:09;;;;;;;12.00;2.88;;;;;;;;;;10396342;28;20047;-61
2021/09/15 22:56:06;;;;;;;3.63;1.20;;;;;;;;;;10407141;28;20139;-62
2021/09/15 23:01:04;;;;;;;9.20;1.60;;;;;;;;;;10404019;28;20079;-63
2021/09/15 23:06:01;;;;;;;4.60;1.80;;;;;;;;;;10389675;28;20123;-62
2021/09/15 23:10:59;;;;;;;6.50;1.23;;;;;;;;;;10398339;28;20090;-63
2021/09/15 23:15:56;;;;;;;7.00;1.50;;;;;;;;;;10384820;28;20511;-63
2021/09/15 23:20:53;;;;;;;11.10;1.43;;;;;;;;;;10389155;28;20130;-62
2021/09/15 23:25:51;;;;;;;4.97;1.27;;;;;;;;;;10407041;28;20036;-62
2021/09/15 23:30:48;;;;;;;3.73;0.90;;;;;;;;;;10411988;28;20046;-63
2021/09/15 23:35:46;;;;;;;1.57;0.63;;;;;;;;;;10413581;28;20035;-62
2021/09/15 23:40:43;;;;;;;6.43;1.17;;;;;;;;;;10398164;28;20119;-63
2021/09/15 23:45:40;;;;;;;4.27;1.10;;;;;;;;;;10404652;28;20032;-63
2021/09/15 23:50:38;;;;;;;1.80;0.67;;;;;;;;;;10407584;28;20051;-62
2021/09/15 23:55:36;;;;;;;3.50;0.60;;;;;;;;;;10405036;28;20509;-64
